createdAt,value
2022-12-11T00:00:29.347Z,26.40
2022-12-11T00:01:29.585Z,26.40
2022-12-11T00:02:29.426Z,26.50
2022-12-11T00:03:29.676Z,24.50
2022-12-11T00:04:29.354Z,25.10
2022-12-11T00:05:29.320Z,26.50
2022-12-11T00:06:29.307Z,25.50
2022-12-11T00:07:29.329Z,24.10
2022-12-11T00:08:29.287Z,25.10
2022-12-11T00:09:29.288Z,27.70
2022-12-11T00:10:31.121Z,27.80
2022-12-11T00:11:29.265Z,25.90
2022-12-11T00:12:29.241Z,29.90
2022-12-11T00:13:29.211Z,27.50
2022-12-11T00:14:29.189Z,28.70
2022-12-11T00:15:29.217Z,28.70
2022-12-11T00:16:29.555Z,25.30
2022-12-11T00:17:29.196Z,30.60
2022-12-11T00:18:29.178Z,29.50
2022-12-11T00:19:29.176Z,31.10
2022-12-11T00:20:29.161Z,31.10
2022-12-11T00:21:29.364Z,28.60
2022-12-11T00:22:29.129Z,29.00
2022-12-11T00:23:29.337Z,33.40
2022-12-11T00:24:29.111Z,29.50
2022-12-11T00:25:29.082Z,33.20
2022-12-11T00:26:29.310Z,34.80
2022-12-11T00:27:29.062Z,35.20
2022-12-11T00:28:56.739Z,31.90
2022-12-11T00:29:29.024Z,34.10
2022-12-11T00:30:29.049Z,32.00
2022-12-11T00:31:29.263Z,37.80
2022-12-11T00:32:30.785Z,35.40
2022-12-11T00:33:29.352Z,34.50
2022-12-11T00:34:28.973Z,36.70
2022-12-11T00:35:28.979Z,35.20
2022-12-11T00:36:28.955Z,35.10
2022-12-11T00:37:29.016Z,34.40
2022-12-11T00:38:29.231Z,37.60
2022-12-11T00:39:28.932Z,35.20
2022-12-11T00:40:28.911Z,38.70
2022-12-11T00:41:28.910Z,37.80
2022-12-11T00:42:29.177Z,38.20
2022-12-11T00:43:29.286Z,39.90
2022-12-11T00:44:28.892Z,36.90
2022-12-11T00:45:28.836Z,41.20
2022-12-11T00:46:28.861Z,41.20
2022-12-11T00:47:28.815Z,39.10
2022-12-11T00:48:28.820Z,38.10
2022-12-11T00:49:29.177Z,36.20
2022-12-11T00:50:28.821Z,42.70
2022-12-11T00:51:28.794Z,41.50
2022-12-11T00:52:28.802Z,39.80
2022-12-11T00:53:28.745Z,40.50
2022-12-11T00:54:28.967Z,38.80
2022-12-11T00:55:28.754Z,36.40
2022-12-11T00:56:28.755Z,39.10
2022-12-11T00:57:28.704Z,38.10
2022-12-11T00:58:28.704Z,39.20
2022-12-11T00:59:28.723Z,38.20
2022-12-11T01:00:28.685Z,37.00
2022-12-11T01:01:28.704Z,34.80
2022-12-11T01:02:28.737Z,38.40
2022-12-11T01:03:28.636Z,41.60
2022-12-11T01:04:28.884Z,36.40
2022-12-11T01:05:28.824Z,36.00
2022-12-11T01:06:28.642Z,40.50
2022-12-11T01:07:28.596Z,37.00
2022-12-11T01:08:29.978Z,42.70
2022-12-11T01:09:28.566Z,37.70
2022-12-11T01:10:28.644Z,42.00
2022-12-11T01:11:28.756Z,39.70
2022-12-11T01:12:28.583Z,39.40
2022-12-11T01:13:28.526Z,43.00
2022-12-11T01:14:28.518Z,40.20
2022-12-11T01:15:28.498Z,38.80
2022-12-11T01:16:28.791Z,41.40
2022-12-11T01:17:28.766Z,36.20
2022-12-11T01:18:28.477Z,40.00
2022-12-11T01:19:28.479Z,34.90
2022-12-11T01:20:28.482Z,37.90
2022-12-11T01:21:28.435Z,34.40
2022-12-11T01:22:28.673Z,33.00
2022-12-11T01:23:28.418Z,38.20
2022-12-11T01:24:28.443Z,33.00
2022-12-11T01:25:28.424Z,33.00
2022-12-11T01:26:28.380Z,37.30
2022-12-11T01:27:28.406Z,36.00
2022-12-11T01:28:28.607Z,34.90
2022-12-11T01:29:28.359Z,32.90
2022-12-11T01:30:28.395Z,31.60
2022-12-11T01:31:28.355Z,30.90
2022-12-11T01:32:28.328Z,30.90
2022-12-11T01:33:28.534Z,33.10
2022-12-11T01:34:28.318Z,33.20
2022-12-11T01:35:28.281Z,32.80
2022-12-11T01:36:28.610Z,33.30
2022-12-11T01:37:28.257Z,32.80
2022-12-11T01:38:28.285Z,31.60
2022-12-11T01:39:28.236Z,34.40
2022-12-11T01:40:28.264Z,33.50
2022-12-11T01:41:28.468Z,33.20
2022-12-11T01:42:28.236Z,33.60
2022-12-11T01:43:28.214Z,33.80
2022-12-11T01:44:28.400Z,36.50
2022-12-11T01:45:28.189Z,35.80
2022-12-11T01:46:28.371Z,34.30
2022-12-11T01:47:28.166Z,42.10
2022-12-11T01:48:28.138Z,37.70
2022-12-11T01:49:28.357Z,34.00
2022-12-11T01:50:28.118Z,39.10
2022-12-11T01:51:28.102Z,36.30
2022-12-11T01:52:28.452Z,37.30
2022-12-11T01:53:28.105Z,40.00
2022-12-11T01:54:28.078Z,39.20
2022-12-11T01:55:28.052Z,38.40
2022-12-11T01:56:28.417Z,42.00
2022-12-11T01:57:28.027Z,37.40
2022-12-11T01:58:28.030Z,42.10
2022-12-11T01:59:28.013Z,40.10
2022-12-11T02:00:28.012Z,42.50
2022-12-11T02:01:28.068Z,42.80
2022-12-11T02:02:28.266Z,37.00
2022-12-11T02:03:27.966Z,39.20
2022-12-11T02:04:28.014Z,40.10
2022-12-11T02:05:27.962Z,38.30
2022-12-11T02:06:27.959Z,39.30
2022-12-11T02:07:27.913Z,40.10
2022-12-11T02:08:28.005Z,37.70
2022-12-11T02:09:27.920Z,41.30
2022-12-11T02:10:28.106Z,38.90
2022-12-11T02:11:27.888Z,39.30
2022-12-11T02:12:27.887Z,40.30
2022-12-11T02:13:27.842Z,39.90
2022-12-11T02:14:27.869Z,43.90
2022-12-11T02:15:27.823Z,42.10
2022-12-11T02:16:27.958Z,45.60
2022-12-11T02:17:27.829Z,42.50
2022-12-11T02:18:27.802Z,41.60
2022-12-11T02:19:27.799Z,46.60
2022-12-11T02:20:27.809Z,41.00
2022-12-11T02:21:27.755Z,43.50
2022-12-11T02:22:27.988Z,46.00
2022-12-11T02:23:27.735Z,46.10
2022-12-11T02:24:27.760Z,49.80
2022-12-11T02:25:27.739Z,47.50
2022-12-11T02:26:27.713Z,46.60
2022-12-11T02:27:27.725Z,49.50
2022-12-11T02:28:28.090Z,44.20
2022-12-11T02:29:27.894Z,54.30
2022-12-11T02:30:27.981Z,55.60
2022-12-11T02:31:48.682Z,53.50
2022-12-11T02:32:27.625Z,50.10
2022-12-11T02:33:27.661Z,54.00
2022-12-11T02:34:27.632Z,48.40
2022-12-11T02:35:27.608Z,50.10
2022-12-11T02:36:27.785Z,53.90
2022-12-11T02:37:27.610Z,52.20
2022-12-11T02:38:27.562Z,57.40
2022-12-11T02:39:27.790Z,50.20
2022-12-11T02:40:27.536Z,58.20
2022-12-11T02:41:27.569Z,58.10
2022-12-11T02:42:27.513Z,51.90
2022-12-11T02:43:55.165Z,57.10
2022-12-11T02:44:27.874Z,51.30
2022-12-11T02:45:27.550Z,60.10
2022-12-11T02:46:27.512Z,51.90
2022-12-11T02:47:27.492Z,54.60
2022-12-11T02:48:27.496Z,60.70
2022-12-11T02:49:27.464Z,54.60
2022-12-11T02:50:27.780Z,62.70
2022-12-11T02:51:27.452Z,57.80
2022-12-11T02:52:27.442Z,56.20
2022-12-11T02:53:27.398Z,67.20
2022-12-11T02:54:27.422Z,61.80
2022-12-11T02:55:27.369Z,58.80
2022-12-11T02:56:27.423Z,63.30
2022-12-11T02:57:27.373Z,59.30
2022-12-11T02:58:27.355Z,63.10
2022-12-11T02:59:27.325Z,61.00
2022-12-11T03:00:27.325Z,53.50
2022-12-11T03:01:27.466Z,55.40
2022-12-11T03:02:27.401Z,57.50
2022-12-11T03:03:27.303Z,63.20
2022-12-11T03:04:27.280Z,56.10
2022-12-11T03:05:27.259Z,60.30
2022-12-11T03:06:27.304Z,67.80
2022-12-11T03:07:27.237Z,61.30
2022-12-11T03:08:27.293Z,62.60
2022-12-11T03:09:27.235Z,59.90
2022-12-11T03:10:27.216Z,59.70
2022-12-11T03:11:27.187Z,52.10
2022-12-11T03:12:27.558Z,57.10
2022-12-11T03:13:27.774Z,60.20
2022-12-11T03:14:27.194Z,59.30
2022-12-11T03:15:27.175Z,53.40
2022-12-11T03:16:27.176Z,62.00
2022-12-11T03:17:27.126Z,56.60
2022-12-11T03:18:27.154Z,51.80
2022-12-11T03:19:27.298Z,53.10
2022-12-11T03:20:27.310Z,54.90
2022-12-11T03:21:27.106Z,52.70
2022-12-11T03:22:27.108Z,49.10
2022-12-11T03:23:27.056Z,49.50
2022-12-11T03:24:27.058Z,46.80
2022-12-11T03:25:27.030Z,50.40
2022-12-11T03:26:27.086Z,47.30
2022-12-11T03:27:27.007Z,45.30
2022-12-11T03:28:27.034Z,52.30
2022-12-11T03:29:26.993Z,49.00
2022-12-11T03:30:27.067Z,49.40
2022-12-11T03:31:26.989Z,47.40
2022-12-11T03:32:27.215Z,43.40
2022-12-11T03:33:26.967Z,46.60
2022-12-11T03:34:27.439Z,49.10
2022-12-11T03:35:27.133Z,46.20
2022-12-11T03:36:26.919Z,47.50
2022-12-11T03:37:27.091Z,43.10
2022-12-11T03:38:26.900Z,51.60
2022-12-11T03:39:26.906Z,45.90
2022-12-11T03:40:26.937Z,51.80
2022-12-11T03:41:26.893Z,45.20
2022-12-11T03:42:26.877Z,47.10
2022-12-11T03:43:27.497Z,52.30
2022-12-11T03:44:26.831Z,42.80
2022-12-11T03:45:26.820Z,50.30
2022-12-11T03:46:26.864Z,51.20
2022-12-11T03:47:26.780Z,49.30
2022-12-11T03:48:26.816Z,52.00
2022-12-11T03:49:26.997Z,44.10
2022-12-11T03:50:26.787Z,53.70
2022-12-11T03:51:26.769Z,51.90
2022-12-11T03:52:26.731Z,48.60
2022-12-11T03:53:27.248Z,48.30
2022-12-11T03:54:26.711Z,45.40
2022-12-11T03:55:26.903Z,49.00
2022-12-11T03:56:26.692Z,45.60
2022-12-11T03:57:26.692Z,46.90
2022-12-11T03:58:26.671Z,45.50
2022-12-11T03:59:26.642Z,49.20
2022-12-11T04:00:26.685Z,50.40
2022-12-11T04:01:26.797Z,48.10
2022-12-11T04:02:26.622Z,48.00
2022-12-11T04:03:26.629Z,43.10
2022-12-11T04:04:26.675Z,50.40
2022-12-11T04:05:26.608Z,46.90
2022-12-11T04:06:26.607Z,42.10
2022-12-11T04:07:26.788Z,44.80
2022-12-11T04:08:26.597Z,49.00
2022-12-11T04:09:26.533Z,50.10
2022-12-11T04:10:26.559Z,41.90
2022-12-11T04:11:26.879Z,45.80
2022-12-11T04:12:26.539Z,45.10
2022-12-11T04:13:26.486Z,41.20
2022-12-11T04:14:26.526Z,49.40
2022-12-11T04:15:26.490Z,41.40
2022-12-11T04:16:26.700Z,44.60
2022-12-11T04:17:26.434Z,38.50
2022-12-11T04:18:26.445Z,42.50
2022-12-11T04:19:26.450Z,44.70
2022-12-11T04:20:26.449Z,36.90
2022-12-11T04:21:26.404Z,37.60
2022-12-11T04:22:26.414Z,39.60
2022-12-11T04:23:26.401Z,36.40
2022-12-11T04:24:26.406Z,38.70
2022-12-11T04:25:26.364Z,38.50
2022-12-11T04:26:26.368Z,37.90
2022-12-11T04:27:26.325Z,38.90
2022-12-11T04:28:26.334Z,35.10
2022-12-11T04:29:26.675Z,33.80
2022-12-11T04:30:32.364Z,35.10
2022-12-11T04:31:27.331Z,34.50
2022-12-11T04:32:26.312Z,35.60
2022-12-11T04:33:26.265Z,34.90
2022-12-11T04:34:26.265Z,33.50
2022-12-11T04:35:26.435Z,35.10
2022-12-11T04:36:26.249Z,34.80
2022-12-11T04:37:26.241Z,34.90
2022-12-11T04:38:26.242Z,33.20
2022-12-11T04:39:26.196Z,32.50
2022-12-11T04:40:26.195Z,30.30
2022-12-11T04:41:26.503Z,34.50
2022-12-11T04:42:26.174Z,35.10
2022-12-11T04:43:26.146Z,33.40
2022-12-11T04:44:26.173Z,32.50
2022-12-11T04:45:26.160Z,27.20
2022-12-11T04:46:26.526Z,31.30
2022-12-11T04:47:26.132Z,30.30
2022-12-11T04:48:26.105Z,33.00
2022-12-11T04:49:26.077Z,32.70
2022-12-11T04:50:26.346Z,32.50
2022-12-11T04:51:26.066Z,32.60
2022-12-11T04:52:26.406Z,32.90
2022-12-11T04:53:26.046Z,29.20
2022-12-11T04:54:26.066Z,33.20
2022-12-11T04:55:26.008Z,31.80
2022-12-11T04:56:26.054Z,30.30
2022-12-11T04:57:26.025Z,31.10
2022-12-11T04:58:26.306Z,30.80
2022-12-11T04:59:26.002Z,29.50
2022-12-11T05:00:25.965Z,30.20
2022-12-11T05:01:26.008Z,33.50
2022-12-11T05:02:26.023Z,29.40
2022-12-11T05:03:26.138Z,32.10
2022-12-11T05:04:25.952Z,29.00
2022-12-11T05:05:25.924Z,30.80
2022-12-11T05:06:25.926Z,32.90
2022-12-11T05:07:25.878Z,32.20
2022-12-11T05:08:26.249Z,29.00
2022-12-11T05:09:25.848Z,31.20
2022-12-11T05:10:25.885Z,31.00
2022-12-11T05:11:25.876Z,30.20
2022-12-11T05:12:25.857Z,31.10
2022-12-11T05:13:26.036Z,29.20
2022-12-11T05:14:25.845Z,32.30
2022-12-11T05:15:25.788Z,31.10
2022-12-11T05:16:25.874Z,31.80
2022-12-11T05:17:25.768Z,28.80
2022-12-11T05:18:25.768Z,30.50
2022-12-11T05:19:25.949Z,30.70
2022-12-11T05:20:25.757Z,29.70
2022-12-11T05:21:29.058Z,27.50
2022-12-11T05:22:26.747Z,30.70
2022-12-11T05:23:25.938Z,29.10
2022-12-11T05:24:25.712Z,27.90
2022-12-11T05:25:26.077Z,28.80
2022-12-11T05:26:25.708Z,27.50
2022-12-11T05:27:25.653Z,24.90
2022-12-11T05:28:25.685Z,27.80
2022-12-11T05:29:25.856Z,28.00
2022-12-11T05:30:25.668Z,28.90
2022-12-11T05:31:25.670Z,28.60
2022-12-11T05:32:25.640Z,26.10
2022-12-11T05:33:25.807Z,30.00
2022-12-11T05:34:25.616Z,27.20
2022-12-11T05:35:25.587Z,25.90
2022-12-11T05:36:25.580Z,26.00
2022-12-11T05:37:25.567Z,26.90
2022-12-11T05:38:25.818Z,27.30
2022-12-11T05:39:25.557Z,28.00
2022-12-11T05:40:25.501Z,24.60
2022-12-11T05:41:25.513Z,27.20
2022-12-11T05:42:29.030Z,27.40
2022-12-11T05:43:25.519Z,28.80
2022-12-11T05:44:25.697Z,30.90
2022-12-11T05:45:25.699Z,29.30
2022-12-11T05:46:25.547Z,28.30
2022-12-11T05:47:25.469Z,29.90
2022-12-11T05:48:25.412Z,29.40
2022-12-11T05:49:30.659Z,26.70
2022-12-11T05:50:26.634Z,27.60
2022-12-11T05:51:25.427Z,28.40
2022-12-11T05:52:25.406Z,28.70
2022-12-11T05:53:25.399Z,27.90
2022-12-11T05:54:25.379Z,30.50
2022-12-11T05:55:25.376Z,31.60
2022-12-11T05:56:25.533Z,30.40
2022-12-11T05:57:25.356Z,30.40
2022-12-11T05:58:25.305Z,29.20
2022-12-11T05:59:25.331Z,31.20
2022-12-11T06:00:25.607Z,26.90
2022-12-11T06:01:25.301Z,22.50
2022-12-11T06:02:25.409Z,20.50
2022-12-11T06:03:25.273Z,20.60
2022-12-11T06:04:25.233Z,22.70
2022-12-11T06:05:25.514Z,21.60
2022-12-11T06:06:25.213Z,22.90
2022-12-11T06:07:25.241Z,23.90
2022-12-11T06:08:25.244Z,23.40
2022-12-11T06:09:25.210Z,24.70
2022-12-11T06:10:25.495Z,21.00
2022-12-11T06:11:25.176Z,21.40
2022-12-11T06:12:25.170Z,22.00
2022-12-11T06:13:25.363Z,23.90
2022-12-11T06:14:25.142Z,22.70
2022-12-11T06:15:25.148Z,20.90
2022-12-11T06:16:25.180Z,24.00
2022-12-11T06:17:25.103Z,21.20
2022-12-11T06:18:25.286Z,23.90
2022-12-11T06:19:25.076Z,21.90
2022-12-11T06:20:25.063Z,22.60
2022-12-11T06:21:25.092Z,21.80
2022-12-11T06:22:25.025Z,21.40
2022-12-11T06:23:25.064Z,21.80
2022-12-11T06:24:25.113Z,21.90
2022-12-11T06:25:25.122Z,19.90
2022-12-11T06:26:25.005Z,20.20
2022-12-11T06:27:25.024Z,17.60
2022-12-11T06:28:24.967Z,21.60
2022-12-11T06:29:25.004Z,19.10
2022-12-11T06:30:38.620Z,19.80
2022-12-11T06:31:26.026Z,21.30
2022-12-11T06:32:24.918Z,20.20
2022-12-11T06:33:24.917Z,19.30
2022-12-11T06:34:25.375Z,20.30
2022-12-11T06:35:24.899Z,18.90
2022-12-11T06:36:24.904Z,20.40
2022-12-11T06:37:24.876Z,20.10
2022-12-11T06:38:24.847Z,21.70
2022-12-11T06:39:24.851Z,20.10
2022-12-11T06:40:24.885Z,20.80
2022-12-11T06:41:24.837Z,22.70
2022-12-11T06:42:24.834Z,21.30
2022-12-11T06:43:24.819Z,20.60
2022-12-11T06:44:25.318Z,20.80
2022-12-11T06:45:24.814Z,20.70
2022-12-11T06:46:24.832Z,21.50
2022-12-11T06:47:24.784Z,20.10
2022-12-11T06:48:24.764Z,20.70
2022-12-11T06:49:24.728Z,20.70
2022-12-11T06:50:24.955Z,20.90
2022-12-11T06:51:24.756Z,20.10
2022-12-11T06:52:24.692Z,20.50
2022-12-11T06:53:24.727Z,20.60
2022-12-11T06:54:24.695Z,17.70
2022-12-11T06:55:24.907Z,17.90
2022-12-11T06:56:24.671Z,19.40
2022-12-11T06:57:24.639Z,19.20
2022-12-11T06:58:24.645Z,18.60
2022-12-11T06:59:24.865Z,19.40
2022-12-11T07:00:24.637Z,19.20
2022-12-11T07:01:24.672Z,19.60
2022-12-11T07:02:24.648Z,18.90
2022-12-11T07:03:24.624Z,20.50
2022-12-11T07:04:25.109Z,17.20
2022-12-11T07:05:24.585Z,16.10
2022-12-11T07:06:24.541Z,17.40
2022-12-11T07:07:24.768Z,15.70
2022-12-11T07:08:24.525Z,17.20
2022-12-11T07:09:24.540Z,16.00
2022-12-11T07:10:24.480Z,16.80
2022-12-11T07:11:24.545Z,16.60
2022-12-11T07:12:24.739Z,13.50
2022-12-11T07:13:24.495Z,16.70
2022-12-11T07:14:24.441Z,16.20
2022-12-11T07:15:24.727Z,16.40
2022-12-11T07:16:24.756Z,14.70
2022-12-11T07:17:24.446Z,14.80
2022-12-11T07:18:24.394Z,16.80
2022-12-11T07:19:24.398Z,15.80
2022-12-11T07:20:24.372Z,17.50
2022-12-11T07:21:24.408Z,15.10
2022-12-11T07:22:24.560Z,16.20
2022-12-11T07:23:24.350Z,18.70
2022-12-11T07:24:24.322Z,15.60
2022-12-11T07:25:24.351Z,16.80
2022-12-11T07:26:24.514Z,16.40
2022-12-11T07:27:24.312Z,17.50
2022-12-11T07:28:24.338Z,19.90
2022-12-11T07:29:24.263Z,19.40
2022-12-11T07:30:24.278Z,17.10
2022-12-11T07:31:24.348Z,17.00
2022-12-11T07:32:24.386Z,16.40
2022-12-11T07:33:24.260Z,18.00
2022-12-11T07:34:24.763Z,20.10
2022-12-11T07:35:24.223Z,21.00
2022-12-11T07:36:24.221Z,19.20
2022-12-11T07:37:24.243Z,19.80
2022-12-11T07:38:24.200Z,19.50
2022-12-11T07:39:24.230Z,20.70
2022-12-11T07:40:24.191Z,19.70
2022-12-11T07:41:24.147Z,20.60
2022-12-11T07:42:24.148Z,19.90
2022-12-11T07:43:24.150Z,16.30
2022-12-11T07:44:24.130Z,17.20
2022-12-11T07:45:24.128Z,15.80
2022-12-11T07:46:24.406Z,17.60
2022-12-11T07:47:24.075Z,14.00
2022-12-11T07:48:24.065Z,13.90
2022-12-11T07:49:24.054Z,15.80
2022-12-11T07:50:24.034Z,13.10
2022-12-11T07:51:24.076Z,14.30
2022-12-11T07:52:24.231Z,13.20
2022-12-11T07:53:24.006Z,13.70
2022-12-11T07:54:24.015Z,12.90
2022-12-11T07:55:23.992Z,14.60
2022-12-11T07:56:23.987Z,13.90
2022-12-11T07:57:24.033Z,15.10
2022-12-11T07:58:23.936Z,15.20
2022-12-11T07:59:23.970Z,14.80
2022-12-11T08:00:23.943Z,16.10
2022-12-11T08:01:24.195Z,14.50
2022-12-11T08:02:23.930Z,15.40
2022-12-11T08:03:23.923Z,14.60
2022-12-11T08:04:23.869Z,15.20
2022-12-11T08:05:23.908Z,16.20
2022-12-11T08:06:23.892Z,15.00
2022-12-11T08:07:23.867Z,15.10
2022-12-11T08:08:23.873Z,14.90
2022-12-11T08:09:23.855Z,16.30
2022-12-11T08:10:24.112Z,13.40
2022-12-11T08:11:23.837Z,14.30
2022-12-11T08:12:24.147Z,14.70
2022-12-11T08:13:23.798Z,16.20
2022-12-11T08:14:23.757Z,17.50
2022-12-11T08:15:23.791Z,14.50
2022-12-11T08:16:23.887Z,15.30
2022-12-11T08:17:29.085Z,16.20
2022-12-11T08:18:24.774Z,14.50
2022-12-11T08:19:23.743Z,15.90
2022-12-11T08:20:24.120Z,14.20
2022-12-11T08:21:23.714Z,16.50
2022-12-11T08:22:23.696Z,15.60
2022-12-11T08:23:23.690Z,15.30
2022-12-11T08:24:23.648Z,16.60
2022-12-11T08:25:23.658Z,15.50
2022-12-11T08:26:23.645Z,16.30
2022-12-11T08:27:23.645Z,15.70
2022-12-11T08:28:23.600Z,16.00
2022-12-11T08:29:23.835Z,16.00
2022-12-11T08:30:23.733Z,15.50
2022-12-11T08:31:23.603Z,15.00
2022-12-11T08:32:23.558Z,13.80
2022-12-11T08:33:23.586Z,14.10
2022-12-11T08:34:23.529Z,16.20
2022-12-11T08:35:23.849Z,15.90
2022-12-11T08:36:23.535Z,14.90
2022-12-11T08:37:23.548Z,14.70
2022-12-11T08:38:25.513Z,13.60
2022-12-11T08:39:23.717Z,14.80
2022-12-11T08:40:23.510Z,14.00
2022-12-11T08:41:23.469Z,13.00
2022-12-11T08:42:23.478Z,12.90
2022-12-11T08:43:23.467Z,14.00
2022-12-11T08:44:23.791Z,11.30
2022-12-11T08:45:23.446Z,11.50
2022-12-11T08:46:23.494Z,12.90
2022-12-11T08:47:23.428Z,13.50
2022-12-11T08:48:23.372Z,12.40
2022-12-11T08:49:23.369Z,10.30
2022-12-11T08:50:23.586Z,13.10
2022-12-11T08:51:23.377Z,12.60
2022-12-11T08:52:23.339Z,12.60
2022-12-11T08:53:23.329Z,13.00
2022-12-11T08:54:23.514Z,11.60
2022-12-11T08:55:23.330Z,12.00
2022-12-11T08:56:23.281Z,12.20
2022-12-11T08:57:23.312Z,13.10
2022-12-11T08:58:23.288Z,11.60
2022-12-11T08:59:23.308Z,13.70
2022-12-11T09:00:23.433Z,12.80
2022-12-11T09:01:23.315Z,13.40
2022-12-11T09:02:23.234Z,11.70
2022-12-11T09:03:23.254Z,11.50
2022-12-11T09:04:23.218Z,12.40
2022-12-11T09:05:23.204Z,11.00
2022-12-11T09:06:23.496Z,12.40
2022-12-11T09:07:23.185Z,11.80
2022-12-11T09:08:23.178Z,12.50
2022-12-11T09:09:23.143Z,10.70
2022-12-11T09:10:23.122Z,11.90
2022-12-11T09:11:23.339Z,11.80
2022-12-11T09:12:23.105Z,11.20
2022-12-11T09:13:23.104Z,10.90
2022-12-11T09:14:23.104Z,12.40
2022-12-11T09:15:23.073Z,11.20
2022-12-11T09:16:23.412Z,12.70
2022-12-11T09:17:23.100Z,12.60
2022-12-11T09:18:23.036Z,11.10
2022-12-11T09:19:26.639Z,13.40
2022-12-11T09:20:24.405Z,12.50
2022-12-11T09:21:23.014Z,12.40
2022-12-11T09:22:22.995Z,12.00
2022-12-11T09:23:22.985Z,12.40
2022-12-11T09:24:22.992Z,14.00
2022-12-11T09:25:23.303Z,12.50
2022-12-11T09:26:22.945Z,14.00
2022-12-11T09:27:22.994Z,12.00
2022-12-11T09:28:22.946Z,12.20
2022-12-11T09:29:22.923Z,12.20
2022-12-11T09:30:22.954Z,13.60
2022-12-11T09:31:22.933Z,11.70
2022-12-11T09:32:22.885Z,12.00
2022-12-11T09:33:22.892Z,12.60
2022-12-11T09:34:28.938Z,13.70
2022-12-11T09:35:23.873Z,12.70
2022-12-11T09:36:22.826Z,12.60
2022-12-11T09:37:22.854Z,13.90
2022-12-11T09:38:22.845Z,13.20
2022-12-11T09:39:23.036Z,13.90
2022-12-11T09:40:22.805Z,14.20
2022-12-11T09:41:22.828Z,15.80
2022-12-11T09:42:22.778Z,15.80
2022-12-11T09:43:22.828Z,13.40
2022-12-11T09:44:22.799Z,15.10
2022-12-11T09:45:22.737Z,13.40
2022-12-11T09:46:24.840Z,12.60
2022-12-11T09:47:22.764Z,13.30
2022-12-11T09:48:22.723Z,12.30
2022-12-11T09:49:22.742Z,12.70
2022-12-11T09:50:22.667Z,14.40
2022-12-11T09:51:22.674Z,13.20
2022-12-11T09:52:22.648Z,13.20
2022-12-11T09:53:22.655Z,16.40
2022-12-11T09:54:22.621Z,13.30
2022-12-11T09:55:22.835Z,13.70
2022-12-11T09:56:22.644Z,14.20
2022-12-11T09:57:22.624Z,14.90
2022-12-11T09:58:22.598Z,12.90
2022-12-11T09:59:22.601Z,14.60
2022-12-11T10:00:22.568Z,12.10
2022-12-11T10:01:22.645Z,13.00
2022-12-11T10:02:22.612Z,13.30
2022-12-11T10:03:22.520Z,11.70
2022-12-11T10:04:22.519Z,13.20
2022-12-11T10:05:22.530Z,11.80
2022-12-11T10:06:22.499Z,12.40
2022-12-11T10:07:22.497Z,12.00
2022-12-11T10:08:22.495Z,12.50
2022-12-11T10:09:22.483Z,12.10
2022-12-11T10:10:22.461Z,12.70
2022-12-11T10:11:22.429Z,11.80
2022-12-11T10:12:22.441Z,13.70
2022-12-11T10:13:22.610Z,13.70
2022-12-11T10:14:22.439Z,14.60
2022-12-11T10:15:22.390Z,14.90
2022-12-11T10:16:22.437Z,14.60
2022-12-11T10:17:22.390Z,14.60
2022-12-11T10:18:22.364Z,14.60
2022-12-11T10:19:22.566Z,14.50
2022-12-11T10:22:08.504Z,13.40
2022-12-11T10:22:33.317Z,12.90
2022-12-11T10:23:33.334Z,9.00
2022-12-11T10:25:07.760Z,8.10
2022-12-11T10:25:34.314Z,7.80
2022-12-11T10:26:33.268Z,7.30
2022-12-11T10:27:33.295Z,7.30
2022-12-11T10:28:33.435Z,7.40
2022-12-11T10:29:33.278Z,8.00
2022-12-11T10:30:34.704Z,9.00
2022-12-11T10:31:33.352Z,10.70
2022-12-11T10:32:33.225Z,8.50
2022-12-11T10:33:33.205Z,9.30
2022-12-11T10:34:33.204Z,9.30
2022-12-11T10:35:33.215Z,10.50
2022-12-11T10:36:33.155Z,10.90
2022-12-11T10:37:33.183Z,11.00
2022-12-11T10:38:33.159Z,13.00
2022-12-11T10:39:33.147Z,12.30
2022-12-11T10:40:33.159Z,12.30
2022-12-11T10:41:33.120Z,12.80
2022-12-11T10:42:33.846Z,13.50
2022-12-11T10:43:33.115Z,12.90
2022-12-11T10:44:33.466Z,13.70
2022-12-11T10:45:33.116Z,15.00
2022-12-11T10:46:33.169Z,14.90
2022-12-11T10:47:33.070Z,13.10
2022-12-11T10:48:33.089Z,13.80
2022-12-11T10:49:33.085Z,13.40
2022-12-11T10:50:33.315Z,14.70
2022-12-11T10:51:33.075Z,13.10
2022-12-11T10:52:33.036Z,13.40
2022-12-11T10:53:32.980Z,14.00
2022-12-11T10:54:32.950Z,15.40
2022-12-11T10:55:33.070Z,12.40
2022-12-11T10:56:32.930Z,13.40
2022-12-11T10:57:33.320Z,13.60
2022-12-11T10:58:32.904Z,14.90
2022-12-11T10:59:32.917Z,14.70
2022-12-11T11:00:32.896Z,14.20
2022-12-11T11:01:32.939Z,14.40
2022-12-11T11:02:33.260Z,14.90
2022-12-11T11:03:32.849Z,15.00
2022-12-11T11:04:32.877Z,14.60
2022-12-11T11:05:32.851Z,14.50
2022-12-11T11:06:32.831Z,13.80
2022-12-11T11:07:33.149Z,15.00
2022-12-11T11:08:32.829Z,15.10
2022-12-11T11:09:32.772Z,10.90
2022-12-11T11:10:32.808Z,10.50
2022-12-11T11:11:33.843Z,10.20
2022-12-11T11:12:32.780Z,9.40
2022-12-11T11:13:32.754Z,10.60
2022-12-11T11:14:32.735Z,10.20
2022-12-11T11:15:32.744Z,9.90
2022-12-11T11:16:32.761Z,11.60
2022-12-11T11:17:35.158Z,11.50
2022-12-11T11:18:32.716Z,11.60
2022-12-11T11:19:32.905Z,11.40
2022-12-11T11:20:32.671Z,10.80
2022-12-11T11:21:32.633Z,13.20
2022-12-11T11:22:32.669Z,11.10
2022-12-11T11:23:32.636Z,13.10
2022-12-11T11:24:32.920Z,12.40
2022-12-11T11:25:32.605Z,12.30
2022-12-11T11:27:04.434Z,12.70
2022-12-11T11:27:33.574Z,12.40
2022-12-11T11:28:32.603Z,12.40
2022-12-11T11:29:32.928Z,12.30
2022-12-11T11:30:32.591Z,11.80
2022-12-11T11:31:32.585Z,13.80
2022-12-11T11:32:32.979Z,13.10
2022-12-11T11:33:32.523Z,13.00
2022-12-11T11:34:32.529Z,13.50
2022-12-11T11:35:32.485Z,13.10
2022-12-11T11:36:32.484Z,14.30
2022-12-11T11:37:32.733Z,12.70
2022-12-11T11:38:32.455Z,13.20
2022-12-11T11:39:32.437Z,15.80
2022-12-11T11:40:32.462Z,13.50
2022-12-11T11:41:32.405Z,13.80
2022-12-11T11:42:32.676Z,13.30
2022-12-11T11:43:32.434Z,15.50
2022-12-11T11:44:32.396Z,14.20
2022-12-11T11:45:32.392Z,14.50
2022-12-11T11:46:32.406Z,14.50
2022-12-11T11:47:32.678Z,12.20
2022-12-11T11:48:32.373Z,12.70
2022-12-11T11:49:32.343Z,11.50
2022-12-11T11:50:32.324Z,11.90
2022-12-11T11:51:32.306Z,10.70
2022-12-11T11:52:32.298Z,11.80
2022-12-11T11:53:32.324Z,13.10
2022-12-11T11:54:32.362Z,13.90
2022-12-11T11:55:32.310Z,12.50
2022-12-11T11:56:32.285Z,12.30
2022-12-11T11:57:32.267Z,13.10
2022-12-11T11:58:34.612Z,11.60
2022-12-11T11:59:32.613Z,10.80
2022-12-11T12:00:34.054Z,11.90
2022-12-11T12:01:32.234Z,10.70
2022-12-11T12:02:32.207Z,11.00
2022-12-11T12:03:32.181Z,12.60
2022-12-11T12:04:32.266Z,11.40
2022-12-11T12:05:32.655Z,12.00
2022-12-11T12:06:32.186Z,11.70
2022-12-11T12:07:32.197Z,11.20
2022-12-11T12:08:32.158Z,11.50
2022-12-11T12:09:32.203Z,11.20
2022-12-11T12:10:32.149Z,12.30
2022-12-11T12:11:32.926Z,11.70
2022-12-11T12:12:34.125Z,11.50
2022-12-11T12:15:33.079Z,11.40
2022-12-11T12:17:33.166Z,10.10
2022-12-11T12:18:32.063Z,9.70
2022-12-11T12:19:32.023Z,10.30
2022-12-11T12:20:32.011Z,9.40
2022-12-11T12:21:31.998Z,10.10
2022-12-11T12:22:32.021Z,8.80
2022-12-11T12:23:36.501Z,8.90
2022-12-11T12:24:33.001Z,10.20
2022-12-11T12:25:32.288Z,9.70
2022-12-11T12:26:31.960Z,9.10
2022-12-11T12:28:32.994Z,9.60
2022-12-11T12:29:31.910Z,9.80
2022-12-11T12:30:31.920Z,8.80
2022-12-11T12:31:31.930Z,10.70
2022-12-11T12:32:31.960Z,9.70
2022-12-11T12:33:31.854Z,8.90
2022-12-11T12:34:31.854Z,9.40
2022-12-11T12:35:31.852Z,8.50
2022-12-11T12:36:31.849Z,10.40
2022-12-11T12:37:31.812Z,8.70
2022-12-11T12:38:32.281Z,11.40
2022-12-11T12:39:31.829Z,8.80
2022-12-11T12:40:31.798Z,10.40
2022-12-11T12:41:31.819Z,10.30
2022-12-11T12:42:31.813Z,9.80
2022-12-11T12:43:31.803Z,9.50
2022-12-11T12:44:32.260Z,10.10
2022-12-11T12:45:31.744Z,10.70
2022-12-11T12:46:31.722Z,10.40
2022-12-11T12:47:31.707Z,10.30
2022-12-11T12:48:31.664Z,10.80
2022-12-11T12:49:31.665Z,10.70
2022-12-11T12:50:31.749Z,10.90
2022-12-11T12:51:31.679Z,10.80
2022-12-11T12:52:31.670Z,10.00
2022-12-11T12:53:31.660Z,9.40
2022-12-11T12:54:31.641Z,10.00
2022-12-11T12:55:31.610Z,9.10
2022-12-11T12:56:31.698Z,10.30
2022-12-11T12:57:31.894Z,9.20
2022-12-11T12:58:31.591Z,9.80